Time;durP1;ratioP1;P1;durP2;ratioP2;P2;SDS_P1;SDS_P2;PMS_P1;PMS_P2;Temp;Humidity;BMP_temperature;BMP_pressure;BME280_temperature;BME280_humidity;BME280_pressure;Samples;Min_cycle;Max_cycle;Signal;HPM_P1;HPM_P2
2022/04/30 00:02:07;;;;;;;13.60;8.18;;;16.20;55.20;;;;;;5032735;28;20029;-87
2022/04/30 00:04:43;;;;;;;12.43;7.90;;;15.90;56.20;;;;;;5050036;28;20048;-91
2022/04/30 00:07:12;;;;;;;10.00;7.78;;;16.10;55.90;;;;;;5053351;28;20028;-91
2022/04/30 00:09:38;;;;;;;12.27;8.15;;;16.40;55.60;;;;;;5053087;28;20021;-90
2022/04/30 00:12:04;;;;;;;10.68;8.07;;;16.60;55.10;;;;;;5054405;28;20056;-89
2022/04/30 00:14:30;;;;;;;10.43;8.73;;;16.10;55.00;;;;;;5059225;28;20027;-88
2022/04/30 00:16:56;;;;;;;12.25;7.90;;;15.80;55.40;;;;;;5056180;28;20032;-87
2022/04/30 00:19:23;;;;;;;10.52;7.70;;;15.20;57.50;;;;;;5075313;28;20048;-91
2022/04/30 00:21:51;;;;;;;10.95;8.18;;;14.80;58.60;;;;;;5056263;28;20029;-91
2022/04/30 00:24:17;;;;;;;11.70;7.72;;;15.10;57.70;;;;;;5042415;28;20410;-94
2022/04/30 00:26:43;;;;;;;11.27;7.60;;;15.60;56.20;;;;;;5036419;28;20051;-92
2022/04/30 00:29:10;;;;;;;10.32;8.20;;;16.00;55.70;;;;;;5036891;28;20112;-87
2022/04/30 00:31:37;;;;;;;10.32;7.55;;;16.00;55.20;;;;;;5046624;28;20090;-93
2022/04/30 00:34:03;;;;;;;13.55;9.25;;;16.00;55.90;;;;;;5041854;28;20025;-95
2022/04/30 00:36:29;;;;;;;13.05;9.73;;;15.80;55.30;;;;;;5036698;28;20022;-91
2022/04/30 00:38:55;;;;;;;12.48;8.82;;;15.90;55.20;;;;;;5036477;28;20029;-92
2022/04/30 00:41:23;;;;;;;10.70;8.13;;;15.90;55.20;;;;;;5047966;28;20352;-89
2022/04/30 00:43:50;;;;;;;9.35;6.78;;;16.10;54.90;;;;;;5056673;28;20029;-90
2022/04/30 00:46:20;;;;;;;8.98;6.75;;;16.10;54.20;;;;;;5055861;28;20052;-90
2022/04/30 00:48:47;;;;;;;10.68;7.30;;;16.10;54.80;;;;;;5056441;28;20024;-93
2022/04/30 00:51:15;;;;;;;11.40;7.15;;;16.00;54.60;;;;;;5055397;28;20082;-85
2022/04/30 00:53:45;;;;;;;10.02;7.05;;;16.10;54.70;;;;;;5055825;28;20035;-90
2022/04/30 00:56:14;;;;;;;8.10;6.20;;;16.30;53.90;;;;;;5056336;28;20081;-88
2022/04/30 00:58:47;;;;;;;9.73;6.30;;;16.30;54.40;;;;;;5057909;28;20105;-93
2022/04/30 01:01:14;;;;;;;11.02;6.70;;;15.90;55.00;;;;;;5059906;28;20017;-88
2022/04/30 01:03:40;;;;;;;9.73;6.90;;;15.90;55.70;;;;;;5060425;28;20375;-87
2022/04/30 01:06:07;;;;;;;10.27;7.20;;;16.00;55.10;;;;;;5059659;28;20021;-88
2022/04/30 01:08:33;;;;;;;10.02;6.72;;;15.90;55.90;;;;;;5059048;28;20024;-89
2022/04/30 01:11:05;;;;;;;8.57;6.40;;;15.80;56.10;;;;;;5077690;28;20024;-91
2022/04/30 01:13:36;;;;;;;9.60;6.93;;;15.90;56.20;;;;;;5059249;28;20052;-90
2022/04/30 01:16:08;;;;;;;8.77;6.60;;;16.10;56.10;;;;;;5060992;28;20036;-89
2022/04/30 01:18:34;;;;;;;10.70;6.82;;;16.00;55.80;;;;;;5057550;28;20047;-91
2022/04/30 01:21:03;;;;;;;10.05;6.90;;;16.20;55.90;;;;;;5040054;28;20483;-92
2022/04/30 01:23:31;;;;;;;9.52;6.88;;;16.30;55.60;;;;;;5040017;28;20039;-90
2022/04/30 01:25:58;;;;;;;9.38;7.03;;;16.50;55.30;;;;;;5039163;28;20060;-88
2022/04/30 01:28:25;;;;;;;8.85;6.65;;;16.60;55.70;;;;;;5038876;28;20067;-88
2022/04/30 01:30:51;;;;;;;12.80;7.45;;;16.70;55.90;;;;;;5039066;28;20028;-87
2022/04/30 01:38:49;;;;;;;13.10;7.70;;;16.80;55.30;;;;;;4994883;28;20045;-89
2022/04/30 01:41:15;;;;;;;9.20;7.15;;;16.20;56.70;;;;;;4980930;28;20035;-93
2022/04/30 01:43:42;;;;;;;10.30;7.65;;;15.90;57.00;;;;;;4980049;28;20050;-91
2022/04/30 01:46:08;;;;;;;10.93;7.38;;;16.00;56.70;;;;;;4970159;28;20027;-90
2022/04/30 01:48:36;;;;;;;10.25;7.60;;;15.90;56.90;;;;;;4959851;28;20489;-87
2022/04/30 01:51:02;;;;;;;10.93;8.80;;;16.20;56.50;;;;;;4960202;28;20490;-91
2022/04/30 01:53:28;;;;;;;9.38;7.28;;;16.10;56.20;;;;;;4967532;28;20033;-89
2022/04/30 01:55:54;;;;;;;10.10;7.90;;;16.00;57.10;;;;;;4995275;28;20037;-88
2022/04/30 01:58:20;;;;;;;10.68;7.28;;;15.90;57.40;;;;;;4994712;28;20038;-86
2022/04/30 02:00:46;;;;;;;11.02;7.32;;;15.80;57.30;;;;;;4978806;28;20026;-89
2022/04/30 02:03:15;;;;;;;13.82;10.07;;;15.60;58.20;;;;;;4972160;28;20095;-86
2022/04/30 02:05:41;;;;;;;13.25;9.45;;;15.80;57.30;;;;;;4978701;28;20026;-90
2022/04/30 02:08:10;;;;;;;11.50;9.23;;;16.10;56.70;;;;;;4978715;28;20026;-88
2022/04/30 02:10:37;;;;;;;8.90;7.15;;;16.50;55.80;;;;;;4978411;28;20042;-87
2022/04/30 02:13:08;;;;;;;9.60;7.30;;;16.40;56.40;;;;;;4978051;28;20050;-88
2022/04/30 02:15:35;;;;;;;11.93;8.45;;;16.30;55.70;;;;;;5019130;28;20052;-86
2022/04/30 02:18:03;;;;;;;10.23;7.38;;;16.40;56.10;;;;;;5038199;28;20043;-88
2022/04/30 02:20:33;;;;;;;10.77;7.63;;;15.90;57.50;;;;;;5037850;28;20047;-86
2022/04/30 02:23:01;;;;;;;10.63;7.70;;;15.90;57.50;;;;;;5054741;28;20549;-87
2022/04/30 02:25:28;;;;;;;10.35;7.65;;;16.20;56.40;;;;;;5057411;28;20376;-87
2022/04/30 02:28:01;;;;;;;10.57;7.57;;;15.80;57.30;;;;;;5057850;28;20429;-85
2022/04/30 02:30:27;;;;;;;10.27;7.93;;;15.50;57.50;;;;;;5057581;28;20025;-88
2022/04/30 02:32:58;;;;;;;11.27;8.48;;;15.00;57.90;;;;;;5057493;28;20036;-88
2022/04/30 02:35:26;;;;;;;12.45;10.20;;;15.50;57.40;;;;;;5057926;28;20029;-87
2022/04/30 02:37:55;;;;;;;13.00;8.90;;;15.80;56.20;;;;;;5057497;28;20481;-88
2022/04/30 02:40:24;;;;;;;15.45;9.88;;;16.10;55.30;;;;;;5057873;28;20494;-87
2022/04/30 02:42:57;;;;;;;13.32;9.13;;;16.30;54.90;;;;;;5057538;28;20016;-85
2022/04/30 02:45:23;;;;;;;11.07;7.75;;;16.10;55.00;;;;;;5057433;28;20028;-85
2022/04/30 02:47:56;;;;;;;13.88;10.73;;;16.10;55.10;;;;;;5057328;28;20115;-87
2022/04/30 02:50:23;;;;;;;13.07;9.30;;;16.00;55.50;;;;;;5054024;28;20025;-87
2022/04/30 02:52:50;;;;;;;14.23;9.68;;;16.10;54.80;;;;;;5037250;28;20476;-87
2022/04/30 02:55:17;;;;;;;11.32;8.65;;;16.20;54.10;;;;;;5037384;28;20028;-87
2022/04/30 03:00:51;;;;;;;9.98;7.95;;;16.60;53.70;;;;;;5055150;28;20036;-87
2022/04/30 03:03:17;;;;;;;10.07;7.95;;;16.70;53.20;;;;;;5037298;28;20025;-87
2022/04/30 03:05:45;;;;;;;11.63;8.23;;;16.60;53.30;;;;;;5037284;28;20032;-85
2022/04/30 03:08:13;;;;;;;12.60;8.55;;;16.50;53.30;;;;;;5039853;28;20025;-86
2022/04/30 03:10:44;;;;;;;11.32;8.52;;;16.40;53.30;;;;;;5057131;28;20034;-87
2022/04/30 03:13:13;;;;;;;10.57;8.43;;;16.40;53.50;;;;;;5053499;28;20076;-86
2022/04/30 03:15:40;;;;;;;9.57;7.65;;;16.10;53.50;;;;;;5053616;28;20032;-87
2022/04/30 03:23:39;;;;;;;10.65;7.53;;;15.50;55.70;;;;;;5055167;28;20039;-83
2022/04/30 03:26:09;;;;;;;15.48;8.43;;;15.20;55.50;;;;;;5053533;28;20033;-86
2022/04/30 03:28:40;;;;;;;12.70;8.30;;;15.30;55.80;;;;;;5053559;28;20071;-85
2022/04/30 03:31:07;;;;;;;11.77;8.70;;;15.30;55.80;;;;;;5053370;28;20025;-85
2022/04/30 03:33:33;;;;;;;11.10;7.68;;;15.50;55.30;;;;;;5053432;28;20063;-86
2022/04/30 03:36:00;;;;;;;12.77;9.20;;;15.60;54.60;;;;;;5052791;28;20013;-86
2022/04/30 03:38:26;;;;;;;14.35;8.85;;;15.70;54.60;;;;;;5053155;28;20028;-85
2022/04/30 03:40:52;;;;;;;10.82;8.43;;;15.60;55.60;;;;;;5053052;28;20074;-85
2022/04/30 03:43:19;;;;;;;13.70;8.73;;;15.60;54.80;;;;;;5052857;28;20024;-87
2022/04/30 03:45:51;;;;;;;10.57;8.00;;;15.80;54.30;;;;;;5053617;28;20028;-88
2022/04/30 03:48:16;;;;;;;12.18;7.90;;;16.10;54.20;;;;;;5052578;28;20013;-86
2022/04/30 03:50:42;;;;;;;9.73;7.78;;;16.00;54.90;;;;;;5052882;28;20024;-85
2022/04/30 03:53:09;;;;;;;11.05;8.20;;;15.90;55.40;;;;;;5053262;28;20044;-86
2022/04/30 03:55:34;;;;;;;9.18;6.90;;;16.00;54.90;;;;;;5072995;28;20502;-85
2022/04/30 03:58:00;;;;;;;10.32;7.18;;;16.10;55.20;;;;;;5072775;28;20119;-86
2022/04/30 04:00:26;;;;;;;9.98;8.07;;;15.80;56.30;;;;;;5072852;28;20021;-86
2022/04/30 04:02:53;;;;;;;17.98;12.52;;;15.80;56.60;;;;;;5068700;28;20104;-87
2022/04/30 04:05:31;;;;;;;14.50;9.80;;;15.80;55.10;;;;;;5052954;28;20025;-86
2022/04/30 04:08:00;;;;;;;10.57;8.70;;;16.00;54.70;;;;;;5052332;28;20025;-86
2022/04/30 04:10:26;;;;;;;11.93;8.30;;;16.00;54.50;;;;;;5052833;28;20025;-85
2022/04/30 04:17:37;;;;;;;10.68;7.82;;;16.20;54.20;;;;;;5054297;28;20055;-85
2022/04/30 04:18:32;;;;;;;13.15;7.57;;;15.70;56.20;;;;;;5012079;28;20092;-82
2022/04/30 04:20:59;;;;;;;13.30;7.95;;;15.70;55.80;;;;;;4995704;28;20464;-84
2022/04/30 04:23:24;;;;;;;10.48;7.55;;;16.10;55.30;;;;;;4992147;28;20038;-85
2022/04/30 04:26:00;;;;;;;10.52;7.47;;;16.20;54.70;;;;;;5004303;28;20449;-84
2022/04/30 04:28:26;;;;;;;11.13;7.70;;;16.40;54.80;;;;;;4976324;28;20042;-84
2022/04/30 04:30:52;;;;;;;9.52;7.28;;;16.40;54.50;;;;;;4976107;28;20023;-85
2022/04/30 04:33:18;;;;;;;10.57;7.32;;;16.70;54.20;;;;;;4977107;28;20035;-84
2022/04/30 04:35:43;;;;;;;9.82;7.80;;;16.70;54.20;;;;;;4989907;28;20590;-86
2022/04/30 04:38:09;;;;;;;11.55;7.30;;;16.80;54.40;;;;;;5003398;28;20056;-85
2022/04/30 04:40:35;;;;;;;10.82;7.18;;;17.10;54.20;;;;;;5018855;28;20068;-87
2022/04/30 04:43:01;;;;;;;8.43;7.10;;;17.00;54.10;;;;;;5018688;28;20030;-85
2022/04/30 04:45:27;;;;;;;14.15;7.95;;;16.80;54.70;;;;;;5019137;28;20056;-84
2022/04/30 04:47:53;;;;;;;12.35;8.05;;;16.90;53.80;;;;;;5004057;28;20378;-81
2022/04/30 04:50:21;;;;;;;13.20;8.50;;;16.90;54.50;;;;;;4995650;28;20036;-84
2022/04/30 04:52:47;;;;;;;10.00;8.05;;;17.10;53.70;;;;;;4993219;28;20045;-83
2022/04/30 04:55:13;;;;;;;11.20;8.20;;;17.30;53.40;;;;;;5033448;28;20051;-92
2022/04/30 04:57:38;;;;;;;12.52;8.77;;;17.70;52.90;;;;;;5056242;28;20025;-81
2022/04/30 05:00:06;;;;;;;13.98;8.60;;;17.90;52.40;;;;;;5055595;28;20390;-81
2022/04/30 05:02:32;;;;;;;12.27;8.57;;;17.90;52.00;;;;;;5055781;28;20154;-83
2022/04/30 05:04:57;;;;;;;11.60;8.85;;;17.90;53.00;;;;;;5055566;28;20484;-82
2022/04/30 05:07:25;;;;;;;19.98;9.80;;;18.10;52.60;;;;;;5055981;28;20075;-81
2022/04/30 05:09:51;;;;;;;9.73;8.60;;;18.60;51.70;;;;;;5055960;28;20434;-94
2022/04/30 05:12:18;;;;;;;11.23;8.98;;;18.90;50.80;;;;;;5057644;28;20525;-82
2022/04/30 05:14:43;;;;;;;13.70;8.65;;;19.20;50.20;;;;;;5058084;28;20028;-81
2022/04/30 05:17:09;;;;;;;10.18;8.27;;;19.50;49.40;;;;;;5058035;28;20463;-87
2022/04/30 05:19:35;;;;;;;12.00;9.25;;;19.70;49.30;;;;;;5060455;28;20027;-89
2022/04/30 05:22:01;;;;;;;11.10;8.60;;;19.90;49.60;;;;;;5048772;28;20044;-81
2022/04/30 05:24:27;;;;;;;13.15;9.10;;;20.00;49.30;;;;;;5057866;28;20027;-88
2022/04/30 05:26:53;;;;;;;12.25;8.73;;;20.10;49.50;;;;;;5058089;28;20020;-83
2022/04/30 05:29:19;;;;;;;11.05;8.90;;;20.30;47.80;;;;;;5064162;28;20059;-84
2022/04/30 05:31:45;;;;;;;11.02;8.70;;;20.30;48.30;;;;;;5096740;28;20020;-81
2022/04/30 05:34:11;;;;;;;12.40;8.77;;;20.50;48.20;;;;;;5065937;28;20020;-81
2022/04/30 05:36:38;;;;;;;12.82;9.65;;;20.10;48.50;;;;;;5058324;28;20032;-86
2022/04/30 05:39:04;;;;;;;14.48;9.35;;;20.10;49.60;;;;;;5058375;28;20035;-84
2022/04/30 05:41:30;;;;;;;14.63;11.15;;;20.50;49.40;;;;;;5058579;28;20024;-84
2022/04/30 05:43:56;;;;;;;34.10;19.67;;;20.90;49.00;;;;;;5057828;28;20035;-85
2022/04/30 05:46:22;;;;;;;66.93;36.45;;;21.30;47.70;;;;;;5081187;28;20036;-82
2022/04/30 05:48:48;;;;;;;46.70;26.67;;;21.40;47.50;;;;;;5095960;28;20123;-83
2022/04/30 05:51:13;;;;;;;42.30;25.95;;;21.50;47.00;;;;;;5077726;28;20055;-83
2022/04/30 05:53:39;;;;;;;34.65;21.52;;;21.70;47.10;;;;;;5077685;28;20464;-84
2022/04/30 05:56:05;;;;;;;32.85;21.55;;;21.70;46.90;;;;;;5095721;28;20034;-86
2022/04/30 05:58:30;;;;;;;31.13;18.23;;;21.20;47.70;;;;;;5078551;28;20024;-84
2022/04/30 06:00:56;;;;;;;27.40;16.67;;;21.20;47.70;;;;;;5096199;28;20051;-87
2022/04/30 06:03:22;;;;;;;17.90;11.50;;;21.60;47.70;;;;;;5078176;28;20360;-87
2022/04/30 06:05:48;;;;;;;18.83;11.30;;;20.90;46.70;;;;;;5077978;28;20020;-87
2022/04/30 06:08:17;;;;;;;14.15;10.30;;;20.30;48.20;;;;;;5078205;28;20043;-85
2022/04/30 06:10:42;;;;;;;15.30;10.23;;;19.80;49.40;;;;;;5078067;28;20467;-85
2022/04/30 06:13:09;;;;;;;16.48;11.60;;;20.00;49.20;;;;;;5095412;28;20051;-90
2022/04/30 06:15:35;;;;;;;15.40;10.90;;;20.60;49.10;;;;;;5095942;28;20058;-90
2022/04/30 06:18:01;;;;;;;13.90;10.52;;;21.20;47.80;;;;;;5077952;28;20024;-86
2022/04/30 06:20:28;;;;;;;14.35;10.38;;;21.10;46.40;;;;;;5077560;28;20463;-85
2022/04/30 06:22:54;;;;;;;14.13;10.57;;;20.00;48.20;;;;;;5095705;28;20032;-86
2022/04/30 06:33:21;;;;;;;13.65;9.88;;;21.10;48.00;;;;;;5878287;23;20052;-86
2022/04/30 06:35:47;;;;;;;14.77;9.45;;;21.80;47.60;;;;;;5016487;28;20022;-87
2022/04/30 06:38:16;;;;;;;13.60;10.48;;;22.30;46.10;;;;;;4999315;28;20411;-90
2022/04/30 06:40:41;;;;;;;12.13;9.02;;;22.60;45.70;;;;;;4999098;28;20076;-90
2022/04/30 06:43:07;;;;;;;11.73;8.68;;;22.90;45.20;;;;;;4998561;28;20026;-88
2022/04/30 06:45:33;;;;;;;15.10;9.20;;;23.20;44.90;;;;;;4998162;28;20025;-87
2022/04/30 06:47:59;;;;;;;13.13;8.57;;;23.00;45.30;;;;;;4996568;28;20026;-80
2022/04/30 06:50:25;;;;;;;12.35;8.40;;;22.90;44.30;;;;;;4997639;28;20095;-85
2022/04/30 06:58:19;;;;;;;10.25;7.90;;;22.60;45.80;;;;;;4996034;28;20540;-87
2022/04/30 07:03:24;;;;;;;12.00;8.10;;;22.40;45.60;;;;;;4995976;28;20026;-77
2022/04/30 07:06:03;;;;;;;9.88;8.02;;;22.60;45.10;;;;;;4994409;28;20023;-94
2022/04/30 07:08:35;;;;;;;9.10;8.10;;;23.00;45.00;;;;;;4994474;28;20024;-82
2022/04/30 07:11:02;;;;;;;11.68;8.20;;;23.20;43.70;;;;;;4996873;28;20376;-85
2022/04/30 07:13:29;;;;;;;11.82;7.75;;;23.30;45.10;;;;;;4993999;28;20040;-87
2022/04/30 07:15:55;;;;;;;19.80;8.75;;;23.50;44.70;;;;;;4998157;28;20033;-84
2022/04/30 07:18:21;;;;;;;10.27;7.53;;;23.90;44.20;;;;;;5014779;28;20018;-85
2022/04/30 07:20:47;;;;;;;10.10;7.30;;;24.20;42.70;;;;;;4997817;28;20028;-91
2022/04/30 07:23:13;;;;;;;10.40;7.40;;;24.60;42.90;;;;;;4997262;28;20076;-84
2022/04/30 07:25:39;;;;;;;10.35;7.40;;;24.50;42.50;;;;;;4997155;28;20026;-84
2022/04/30 07:28:04;;;;;;;9.02;7.05;;;24.10;43.00;;;;;;4993732;28;20033;-79
2022/04/30 07:30:30;;;;;;;9.00;7.00;;;23.60;44.30;;;;;;4992993;28;20055;-82
2022/04/30 07:32:56;;;;;;;8.43;6.53;;;23.40;42.40;;;;;;5013658;28;20026;-82
2022/04/30 07:35:21;;;;;;;8.00;6.70;;;22.70;42.50;;;;;;4996734;28;20022;-80
2022/04/30 07:37:47;;;;;;;9.45;6.78;;;21.80;44.40;;;;;;5013706;28;20018;-83
2022/04/30 07:40:13;;;;;;;24.15;8.65;;;22.30;45.10;;;;;;5014057;28;20096;-81
2022/04/30 07:42:38;;;;;;;10.45;6.13;;;21.90;45.80;;;;;;4996452;28;20025;-80
2022/04/30 07:45:04;;;;;;;10.35;6.70;;;22.20;43.00;;;;;;5012742;28;20052;-81
2022/04/30 07:47:30;;;;;;;10.35;6.38;;;22.10;45.00;;;;;;5013659;28;20021;-81
2022/04/30 07:49:56;;;;;;;14.23;7.68;;;22.20;43.60;;;;;;5011682;28;20017;-79
2022/04/30 07:52:21;;;;;;;10.52;6.38;;;21.90;43.80;;;;;;5013302;28;20030;-85
2022/04/30 07:54:47;;;;;;;7.13;5.85;;;21.90;45.40;;;;;;4995475;28;20017;-79
2022/04/30 07:57:13;;;;;;;8.77;6.47;;;21.80;43.80;;;;;;4996066;28;20161;-83
2022/04/30 07:59:38;;;;;;;12.43;6.28;;;21.70;45.10;;;;;;4996270;28;20026;-84
2022/04/30 08:02:04;;;;;;;9.25;6.32;;;22.30;44.60;;;;;;4995703;28;20021;-83
2022/04/30 08:04:30;;;;;;;8.65;6.68;;;22.00;43.90;;;;;;5013595;28;20018;-80
2022/04/30 08:06:56;;;;;;;7.20;5.75;;;21.90;45.20;;;;;;5012075;28;20022;-80
2022/04/30 08:09:22;;;;;;;8.45;6.00;;;22.30;44.70;;;;;;5013410;28;20014;-82
2022/04/30 08:11:47;;;;;;;9.80;6.35;;;22.10;45.40;;;;;;5013145;28;20030;-81
2022/04/30 08:14:13;;;;;;;10.52;6.30;;;22.00;45.30;;;;;;5013473;28;20075;-81
2022/04/30 08:16:39;;;;;;;9.43;6.00;;;21.80;45.10;;;;;;5013538;28;20109;-81
2022/04/30 08:19:05;;;;;;;11.13;5.60;;;21.90;45.50;;;;;;5012025;28;20030;-81
2022/04/30 08:21:30;;;;;;;7.68;5.80;;;22.50;45.90;;;;;;5012495;28;20084;-83
2022/04/30 08:23:57;;;;;;;8.82;6.05;;;22.90;44.70;;;;;;5012678;28;20026;-78
2022/04/30 08:26:23;;;;;;;11.45;7.65;;;23.10;44.60;;;;;;5012642;28;20026;-80
2022/04/30 08:28:48;;;;;;;10.73;7.80;;;23.50;44.10;;;;;;4994877;28;20029;-81
2022/04/30 08:31:14;;;;;;;18.33;14.70;;;23.80;44.00;;;;;;4990329;28;20026;-78
2022/04/30 08:33:40;;;;;;;15.07;9.98;;;23.70;44.80;;;;;;4997090;28;20395;-79
2022/04/30 08:36:06;;;;;;;18.70;11.57;;;23.70;43.60;;;;;;5008578;28;20050;-81
2022/04/30 08:38:32;;;;;;;21.38;11.10;;;23.90;44.20;;;;;;5010333;28;20054;-80
2022/04/30 08:40:57;;;;;;;18.83;10.90;;;24.00;44.20;;;;;;5017273;28;20088;-77
2022/04/30 08:43:23;;;;;;;10.68;7.38;;;23.70;44.40;;;;;;5002459;28;20465;-77
2022/04/30 08:45:49;;;;;;;14.07;9.52;;;23.40;44.00;;;;;;5021425;28;20033;-79
2022/04/30 08:48:16;;;;;;;28.45;16.17;;;23.20;44.70;;;;;;4997491;28;20350;-79
2022/04/30 08:50:45;;;;;;;32.33;10.82;;;23.50;44.10;;;;;;5003638;28;20109;-79
2022/04/30 08:53:11;;;;;;;13.35;8.30;;;23.40;45.10;;;;;;5009046;28;20125;-81
2022/04/30 08:55:38;;;;;;;8.05;6.43;;;23.70;46.20;;;;;;4991762;28;20109;-83
2022/04/30 08:58:04;;;;;;;11.80;7.28;;;23.60;43.60;;;;;;5005148;28;20017;-78
2022/04/30 09:00:37;;;;;;;16.52;7.32;;;23.60;43.70;;;;;;5012555;28;20041;-80
2022/04/30 09:03:03;;;;;;;12.25;6.15;;;24.10;43.00;;;;;;5000362;28;20033;-80
2022/04/30 09:05:37;;;;;;;21.60;7.18;;;23.50;43.90;;;;;;5003481;28;20022;-79
2022/04/30 09:08:05;;;;;;;9.85;6.63;;;23.80;44.40;;;;;;5005685;28;20030;-79
2022/04/30 09:10:35;;;;;;;8.98;5.60;;;23.50;44.30;;;;;;5000094;28;20364;-80
2022/04/30 09:13:07;;;;;;;14.30;8.25;;;23.30;44.20;;;;;;5011397;28;20042;-78
2022/04/30 09:15:34;;;;;;;15.82;7.05;;;23.60;45.10;;;;;;5015464;28;20022;-78
2022/04/30 09:18:01;;;;;;;7.90;5.85;;;24.20;45.20;;;;;;5027519;28;20064;-80
2022/04/30 09:20:27;;;;;;;17.67;6.60;;;24.50;43.90;;;;;;5015127;28;20026;-78
2022/04/30 09:22:53;;;;;;;9.57;5.35;;;24.40;44.20;;;;;;5014326;28;20034;-77
2022/04/30 09:25:19;;;;;;;18.27;8.30;;;24.70;43.40;;;;;;5001175;28;20512;-79
2022/04/30 09:27:49;;;;;;;8.60;6.40;;;24.60;43.00;;;;;;5000217;28;20034;-78
2022/04/30 09:30:17;;;;;;;8.65;5.53;;;24.60;42.30;;;;;;5014788;28;20026;-79
2022/04/30 09:32:43;;;;;;;9.13;7.18;;;24.90;44.60;;;;;;5006088;28;20046;-81
2022/04/30 09:38:06;;;;;;;8.90;5.70;;;25.40;41.70;;;;;;5016054;28;20060;-78
2022/04/30 09:40:32;;;;;;;8.05;5.10;;;25.30;42.30;;;;;;5015590;28;20093;-76
2022/04/30 09:43:00;;;;;;;6.47;4.55;;;26.00;45.70;;;;;;4996520;28;20023;-78
2022/04/30 09:45:31;;;;;;;9.32;4.63;;;26.10;39.70;;;;;;5023156;28;20363;-79
2022/04/30 09:48:01;;;;;;;9.15;4.93;;;26.00;42.30;;;;;;5021880;28;20032;-78
2022/04/30 09:56:05;;;;;;;8.82;4.53;;;27.10;41.60;;;;;;5009754;28;20040;-78
2022/04/30 09:58:35;;;;;;;11.75;4.97;;;26.30;40.20;;;;;;5015535;28;20013;-78
2022/04/30 10:01:02;;;;;;;7.50;5.20;;;26.40;42.90;;;;;;5012387;28;20046;-77
2022/04/30 10:03:31;;;;;;;5.90;4.30;;;26.70;40.20;;;;;;5011365;28;20018;-76
2022/04/30 10:06:03;;;;;;;8.20;4.82;;;25.60;40.50;;;;;;5005012;28;20053;-78
2022/04/30 10:08:37;;;;;;;7.80;4.60;;;26.00;41.60;;;;;;5009334;28;20105;-77
2022/04/30 10:11:33;;;;;;;9.50;5.60;;;25.80;41.40;;;;;;5014954;28;20029;-77
2022/04/30 10:14:31;;;;;;;6.55;4.38;;;25.90;42.60;;;;;;5013451;28;20033;-77
2022/04/30 10:17:20;;;;;;;9.18;4.10;;;26.30;40.70;;;;;;5013737;28;20022;-79
2022/04/30 10:20:11;;;;;;;7.30;4.57;;;26.20;38.80;;;;;;5005724;28;20014;-84
2022/04/30 10:22:48;;;;;;;7.97;4.10;;;27.00;38.50;;;;;;5013307;28;20022;-82
2022/04/30 10:25:13;;;;;;;6.65;4.35;;;26.30;37.40;;;;;;5011622;28;20022;-78
2022/04/30 10:27:41;;;;;;;7.75;4.90;;;25.60;39.20;;;;;;5008416;28;20026;-78
2022/04/30 10:30:18;;;;;;;6.03;4.32;;;25.30;39.10;;;;;;5006175;28;20029;-78
2022/04/30 10:32:56;;;;;;;5.68;3.97;;;25.70;38.90;;;;;;4999605;28;20034;-81
2022/04/30 10:35:30;;;;;;;9.55;4.82;;;27.00;40.40;;;;;;4994327;28;20045;-78
2022/04/30 10:38:11;;;;;;;6.60;4.20;;;28.40;38.70;;;;;;4995222;28;20026;-79
2022/04/30 10:40:39;;;;;;;6.60;4.65;;;28.70;37.60;;;;;;4994728;28;20023;-78
2022/04/30 10:43:37;;;;;;;8.75;4.30;;;29.40;39.50;;;;;;4993714;28;20361;-77
2022/04/30 10:46:13;;;;;;;6.15;3.83;;;31.00;37.70;;;;;;5009104;28;20041;-79
2022/04/30 10:48:39;;;;;;;9.90;6.60;;;32.10;38.70;;;;;;5013989;28;20049;-78
2022/04/30 10:51:12;;;;;;;6.15;4.25;;;33.20;36.00;;;;;;5011649;28;20633;-78
2022/04/30 10:53:45;;;;;;;5.78;3.85;;;33.50;35.90;;;;;;4993235;28;20040;-79
2022/04/30 10:56:11;;;;;;;7.03;3.83;;;33.10;33.90;;;;;;5010209;28;20030;-80
2022/04/30 10:59:34;;;;;;;5.57;4.00;;;29.00;34.10;;;;;;5089859;27;20652;-79
2022/04/30 11:02:01;;;;;;;5.38;4.13;;;27.00;37.80;;;;;;5089230;28;20476;-79
2022/04/30 11:04:27;;;;;;;11.93;6.72;;;27.10;37.20;;;;;;5087730;28;20115;-80
2022/04/30 11:06:54;;;;;;;6.00;4.40;;;27.00;36.70;;;;;;5089327;28;20024;-82
2022/04/30 11:09:21;;;;;;;5.68;4.13;;;25.90;35.60;;;;;;5089001;28;20020;-80
2022/04/30 11:11:48;;;;;;;5.63;4.30;;;25.10;36.20;;;;;;5087151;28;20024;-81
2022/04/30 11:14:16;;;;;;;5.50;4.20;;;26.00;37.40;;;;;;5090210;28;20454;-80
2022/04/30 11:16:47;;;;;;;6.53;4.25;;;25.40;35.70;;;;;;5088337;28;20417;-82
2022/04/30 11:19:20;;;;;;;7.22;4.55;;;25.00;38.00;;;;;;5088665;28;20490;-78
2022/04/30 11:21:54;;;;;;;5.65;4.03;;;25.20;37.40;;;;;;5088718;28;20020;-75
2022/04/30 11:24:24;;;;;;;8.20;4.00;;;25.70;38.90;;;;;;5089981;28;20025;-79
2022/04/30 11:26:55;;;;;;;6.15;3.90;;;26.60;37.40;;;;;;5089229;28;20012;-77
2022/04/30 11:29:20;;;;;;;;;;;25.70;36.70;;;;;;5090998;28;20048;-82
2022/04/30 11:31:54;;;;;;;10.73;5.10;;;25.20;37.00;;;;;;5090048;28;19901;-82
2022/04/30 11:34:20;;;;;;;10.13;6.05;;;25.40;37.70;;;;;;5088854;28;20035;-79
2022/04/30 11:36:48;;;;;;;8.48;5.30;;;25.40;37.70;;;;;;5088755;28;20069;-82
2022/04/30 11:39:15;;;;;;;6.72;4.20;;;25.60;37.20;;;;;;5088875;28;20028;-78
2022/04/30 11:41:43;;;;;;;5.20;3.70;;;25.70;36.40;;;;;;5088718;28;20417;-78
2022/04/30 11:44:12;;;;;;;8.57;3.67;;;26.50;38.20;;;;;;5089900;28;20025;-79
2022/04/30 11:46:43;;;;;;;6.95;3.60;;;26.60;36.30;;;;;;5089891;28;20020;-80
2022/04/30 11:49:11;;;;;;;5.65;3.58;;;26.20;37.70;;;;;;5088541;28;20016;-77
2022/04/30 11:51:37;;;;;;;4.60;3.40;;;26.20;37.80;;;;;;5089726;28;20032;-79
2022/04/30 11:54:07;;;;;;;7.15;3.55;;;27.00;37.90;;;;;;5089963;28;20004;-78
2022/04/30 11:56:33;;;;;;;6.38;3.63;;;27.70;36.60;;;;;;5088482;28;20490;-78
2022/04/30 11:58:58;;;;;;;5.32;3.72;;;27.80;35.30;;;;;;5088410;28;20040;-81
2022/04/30 12:01:33;;;;;;;5.03;3.50;;;26.00;34.50;;;;;;5099303;28;20116;-79
2022/04/30 12:04:05;;;;;;;4.65;3.55;;;25.80;37.20;;;;;;5088240;28;20051;-77
2022/04/30 12:06:32;;;;;;;7.45;3.83;;;26.70;36.20;;;;;;5088433;28;20023;-80
2022/04/30 12:08:58;;;;;;;6.90;4.03;;;27.20;36.80;;;;;;5087001;28;20569;-80
2022/04/30 12:11:25;;;;;;;7.57;3.40;;;27.20;36.40;;;;;;5075784;28;20021;-81
2022/04/30 12:14:08;;;;;;;6.55;3.70;;;27.30;35.40;;;;;;5073708;28;20103;-82
2022/04/30 12:16:38;;;;;;;7.68;3.78;;;27.80;35.20;;;;;;5074826;28;20114;-81
2022/04/30 12:24:42;;;;;;;5.57;3.72;;;27.20;36.10;;;;;;5056554;28;20109;-78
2022/04/30 12:27:09;;;;;;;5.70;4.10;;;26.80;36.70;;;;;;5069883;28;20013;-79
2022/04/30 12:29:35;;;;;;;6.72;3.80;;;27.30;37.00;;;;;;5062740;28;20159;-81
2022/04/30 12:32:08;;;;;;;5.20;4.03;;;26.90;36.70;;;;;;5055785;28;20097;-83
2022/04/30 12:34:41;;;;;;;6.38;3.85;;;26.20;36.90;;;;;;5074468;28;20020;-77
2022/04/30 12:37:08;;;;;;;5.78;4.07;;;25.70;36.40;;;;;;5074472;28;20024;-79
2022/04/30 12:39:35;;;;;;;6.20;3.97;;;25.60;36.30;;;;;;5074533;28;20368;-81
2022/04/30 12:42:01;;;;;;;7.57;3.67;;;25.40;36.70;;;;;;5074034;28;20030;-80
2022/04/30 12:44:27;;;;;;;7.07;4.00;;;25.50;36.70;;;;;;5073517;28;20024;-77
2022/04/30 12:46:54;;;;;;;10.32;3.90;;;26.10;36.50;;;;;;5055375;28;20099;-81
2022/04/30 12:49:19;;;;;;;7.80;4.13;;;26.20;36.40;;;;;;5053944;28;20127;-79
2022/04/30 12:51:50;;;;;;;5.90;3.90;;;26.30;36.50;;;;;;5053875;28;20088;-81
2022/04/30 12:54:16;;;;;;;7.05;3.90;;;26.70;37.80;;;;;;5056356;28;20024;-80
2022/04/30 12:56:44;;;;;;;6.10;3.80;;;26.60;37.60;;;;;;5058931;28;20025;-84
2022/04/30 12:59:16;;;;;;;7.32;4.13;;;26.20;35.50;;;;;;5073496;28;20135;-78
2022/04/30 13:01:42;;;;;;;6.05;3.75;;;25.20;36.80;;;;;;5064530;28;20115;-81
2022/04/30 13:04:08;;;;;;;7.75;3.70;;;24.70;36.40;;;;;;5054852;28;20434;-77
2022/04/30 13:06:35;;;;;;;5.72;4.13;;;24.60;36.90;;;;;;5053513;28;20017;-76
2022/04/30 13:14:29;;;;;;;4.70;3.75;;;25.50;37.40;;;;;;5069138;28;20027;-78
2022/04/30 13:16:55;;;;;;;6.07;3.60;;;25.90;37.90;;;;;;5074534;28;20024;-79
2022/04/30 13:19:21;;;;;;;6.95;3.97;;;25.70;36.90;;;;;;5073315;28;20043;-78
2022/04/30 13:21:47;;;;;;;7.30;4.10;;;25.20;37.00;;;;;;5073256;28;20074;-79
2022/04/30 13:24:16;;;;;;;8.85;4.10;;;25.30;37.90;;;;;;5089892;28;20034;-77
2022/04/30 13:26:45;;;;;;;6.90;4.00;;;25.30;37.60;;;;;;5093486;28;20016;-77
2022/04/30 13:29:11;;;;;;;6.32;3.90;;;25.30;37.10;;;;;;5094101;28;20370;-76
2022/04/30 13:31:41;;;;;;;8.45;4.20;;;25.10;38.20;;;;;;5094412;28;20016;-78
2022/04/30 13:34:08;;;;;;;4.88;3.95;;;24.90;36.70;;;;;;5093056;28;20031;-78
2022/04/30 13:36:35;;;;;;;6.05;3.65;;;24.70;37.20;;;;;;5061022;28;20368;-78
2022/04/30 13:39:03;;;;;;;7.85;3.90;;;25.10;37.50;;;;;;5073903;28;20064;-75